Terminal Aerodrome Forecast
Issued by NWS Huntsville, AL

Home | Current Version | Previous Version | Text Only | Print | Product List | Glossary On
Versions: 1 2 3 4 5 6 7 8 9 10 11 12 13 14 15 16 17 18 19 20 21 22 23 24 25 26 27 28 29 30 31 32 33 34 35 36 37 38 39
000
FTUS44 KHUN 030339 AAA
TAFHSV
TAF AMD
KHSV 030339Z 0304/0324 02003KT P6SM FEW050
      TEMPO 0308/0312 3SM BR BKN008
     FM031300 36005KT P6SM BKN025
     FM031600 04005KT P6SM SCT035=

USA.gov is the U.S. government's official web portal to all federal, state and local government web resources and services.